createdAt,value
2023-05-03T00:02:06.429Z,73.82
2023-05-03T00:04:36.277Z,73.52
2023-05-03T00:07:06.074Z,73.39
2023-05-03T00:09:36.661Z,74.10
2023-05-03T00:12:07.717Z,74.37
2023-05-03T00:14:37.452Z,74.47
2023-05-03T00:17:09.766Z,74.07
2023-05-03T00:19:40.270Z,74.86
2023-05-03T00:22:10.172Z,74.58
2023-05-03T00:24:39.940Z,75.00
2023-05-03T00:27:09.650Z,74.96
2023-05-03T00:29:39.389Z,75.19
2023-05-03T00:32:11.784Z,74.93
2023-05-03T00:34:41.603Z,75.21
2023-05-03T00:37:11.505Z,75.25
2023-05-03T00:39:41.311Z,75.06
2023-05-03T00:42:11.129Z,75.29
2023-05-03T00:44:40.976Z,75.08
2023-05-03T00:47:13.638Z,74.67
2023-05-03T00:49:44.605Z,75.11
2023-05-03T00:52:14.542Z,75.58
2023-05-03T00:54:44.463Z,75.38
2023-05-03T00:57:14.486Z,75.79
2023-05-03T00:59:45.272Z,76.16
2023-05-03T01:02:17.605Z,75.48
2023-05-03T01:04:47.963Z,76.12
2023-05-03T01:07:26.885Z,76.18
2023-05-03T01:10:02.851Z,76.64
2023-05-03T01:12:43.414Z,76.61
2023-05-03T01:15:20.992Z,76.00
2023-05-03T01:17:57.090Z,76.40
2023-05-03T01:20:31.078Z,77.51
2023-05-03T01:23:08.812Z,77.75
2023-05-03T01:25:41.872Z,78.22
2023-05-03T01:28:11.618Z,79.04
2023-05-03T01:30:43.280Z,77.76
2023-05-03T01:33:19.671Z,77.59
2023-05-03T01:35:57.414Z,77.32
2023-05-03T01:38:27.300Z,77.28
2023-05-03T01:41:05.129Z,76.87
2023-05-03T01:43:37.104Z,77.13
2023-05-03T01:46:07.079Z,77.09
2023-05-03T01:48:36.844Z,77.30
2023-05-03T01:51:06.776Z,76.85
2023-05-03T01:53:36.583Z,77.00
2023-05-03T01:56:09.363Z,76.91
2023-05-03T01:58:39.359Z,77.36
2023-05-03T02:01:09.212Z,76.91
2023-05-03T02:03:39.070Z,76.97
2023-05-03T02:06:09.145Z,76.99
2023-05-03T02:08:38.970Z,77.25
2023-05-03T02:11:11.303Z,77.20
2023-05-03T02:13:41.498Z,77.22
2023-05-03T02:16:11.987Z,77.07
2023-05-03T02:18:42.016Z,77.40
2023-05-03T02:21:12.213Z,77.00
2023-05-03T02:23:42.221Z,76.68
2023-05-03T02:26:14.535Z,76.48
2023-05-03T02:28:44.357Z,76.27
2023-05-03T02:31:14.210Z,76.76
2023-05-03T02:33:45.942Z,76.41
2023-05-03T02:36:16.014Z,76.01
2023-05-03T02:38:47.454Z,75.72
2023-05-03T02:41:19.848Z,76.04
2023-05-03T02:43:49.845Z,75.93
2023-05-03T02:46:19.654Z,76.33
2023-05-03T02:48:49.486Z,76.83
2023-05-03T02:51:19.249Z,77.29
2023-05-03T02:53:48.990Z,78.04
2023-05-03T02:56:21.351Z,77.90
2023-05-03T02:58:51.234Z,78.79
2023-05-03T03:01:22.138Z,78.63
2023-05-03T03:03:52.159Z,77.76
2023-05-03T03:06:22.176Z,77.75
2023-05-03T03:08:51.973Z,77.43
2023-05-03T03:11:25.369Z,77.42
2023-05-03T03:13:55.788Z,77.50
2023-05-03T03:16:27.689Z,77.90
2023-05-03T03:18:58.341Z,77.34
2023-05-03T03:21:29.807Z,77.44
2023-05-03T03:23:59.634Z,77.95
2023-05-03T03:26:32.168Z,77.40
2023-05-03T03:29:03.033Z,77.51
2023-05-03T03:31:33.594Z,77.92
2023-05-03T03:34:03.609Z,77.84
2023-05-03T03:36:34.406Z,77.76
2023-05-03T03:39:04.233Z,77.72
2023-05-03T03:41:39.203Z,77.99
2023-05-03T03:44:09.346Z,77.91
2023-05-03T03:46:39.269Z,77.85
2023-05-03T03:49:09.380Z,77.41
2023-05-03T03:51:39.967Z,77.66
2023-05-03T03:54:09.880Z,77.77
2023-05-03T03:56:47.265Z,78.06
2023-05-03T03:59:18.487Z,78.35
2023-05-03T04:01:49.183Z,78.40
2023-05-03T04:04:19.491Z,78.35
2023-05-03T04:06:50.070Z,78.44
2023-05-03T04:09:20.171Z,78.27
2023-05-03T04:11:52.736Z,78.19
2023-05-03T04:14:22.765Z,78.16
2023-05-03T04:16:52.837Z,78.39
2023-05-03T04:19:23.979Z,77.95
2023-05-03T04:21:53.831Z,77.98
2023-05-03T04:24:24.441Z,78.27
2023-05-03T04:26:57.026Z,77.47
2023-05-03T04:29:31.463Z,77.55
2023-05-03T04:32:01.624Z,77.50
2023-05-03T04:34:31.826Z,77.91
2023-05-03T04:37:03.123Z,77.84
2023-05-03T04:39:32.917Z,77.38
2023-05-03T04:42:08.008Z,77.46
2023-05-03T04:44:38.083Z,77.16
2023-05-03T04:47:08.029Z,77.29
2023-05-03T04:49:39.327Z,77.25
2023-05-03T04:52:10.540Z,76.89
2023-05-03T04:54:41.425Z,77.40
2023-05-03T04:57:13.813Z,76.80
2023-05-03T04:59:43.602Z,77.22
2023-05-03T05:02:13.747Z,77.07
2023-05-03T05:04:43.560Z,77.24
2023-05-03T05:07:14.808Z,76.30
2023-05-03T05:09:46.810Z,76.02
2023-05-03T05:12:19.328Z,75.93
2023-05-03T05:14:49.125Z,76.02
2023-05-03T05:17:19.036Z,76.59
2023-05-03T05:19:48.972Z,77.05
2023-05-03T05:22:19.894Z,77.03
2023-05-03T05:24:55.575Z,77.49
2023-05-03T05:27:29.653Z,77.23
2023-05-03T05:30:01.325Z,77.36
2023-05-03T05:32:31.997Z,76.65
2023-05-03T05:35:01.845Z,76.73
2023-05-03T05:37:32.185Z,76.51
2023-05-03T05:40:05.518Z,76.38
2023-05-03T05:42:43.656Z,75.68
2023-05-03T05:45:14.637Z,75.71
2023-05-03T05:47:45.957Z,75.22
2023-05-03T05:50:18.828Z,74.41
2023-05-03T05:52:55.380Z,74.03
2023-05-03T05:55:27.193Z,73.54
2023-05-03T05:58:00.925Z,72.46
2023-05-03T06:00:39.218Z,71.89
2023-05-03T06:03:09.560Z,71.59
2023-05-03T06:05:40.317Z,70.60
2023-05-03T06:08:12.059Z,69.82
2023-05-03T06:10:41.981Z,69.22
2023-05-03T06:13:15.123Z,67.89
2023-05-03T06:15:46.080Z,65.57
2023-05-03T06:18:16.176Z,63.97
2023-05-03T06:20:51.282Z,62.22
2023-05-03T06:23:22.312Z,62.13
2023-05-03T06:25:53.201Z,61.73
2023-05-03T06:28:26.327Z,60.77
2023-05-03T06:30:58.358Z,59.71
2023-05-03T06:33:29.990Z,59.76
2023-05-03T06:35:59.978Z,59.79
2023-05-03T06:38:29.835Z,58.83
2023-05-03T06:41:00.112Z,59.06
2023-05-03T06:43:32.611Z,59.10
2023-05-03T06:46:08.297Z,59.27
2023-05-03T06:48:38.128Z,59.61
2023-05-03T06:51:08.024Z,59.64
2023-05-03T06:53:38.629Z,59.09
2023-05-03T06:56:09.032Z,59.19
2023-05-03T06:58:41.360Z,59.45
2023-05-03T07:01:11.134Z,60.18
2023-05-03T07:03:41.833Z,62.06
2023-05-03T07:06:12.010Z,60.63
2023-05-03T07:08:41.798Z,61.66
2023-05-03T07:11:11.854Z,61.85
2023-05-03T07:13:44.208Z,61.97
2023-05-03T07:16:13.984Z,61.47
2023-05-03T07:18:43.729Z,60.77
2023-05-03T07:21:13.517Z,61.08
2023-05-03T07:23:43.404Z,61.53
2023-05-03T07:26:13.418Z,60.90
2023-05-03T07:28:45.804Z,59.10
2023-05-03T07:31:15.833Z,58.78
2023-05-03T07:33:45.827Z,58.34
2023-05-03T07:36:15.683Z,57.42
2023-05-03T07:38:45.441Z,56.57
2023-05-03T07:41:15.394Z,56.63
2023-05-03T07:43:47.720Z,57.09
2023-05-03T07:46:17.556Z,56.01
2023-05-03T07:48:47.310Z,55.09
2023-05-03T07:51:17.109Z,55.01
2023-05-03T07:53:46.882Z,55.01
2023-05-03T07:56:16.637Z,53.92
2023-05-03T07:58:56.982Z,53.81
2023-05-03T08:01:34.811Z,54.65
2023-05-03T08:04:04.981Z,53.93
2023-05-03T08:06:35.978Z,54.89
2023-05-03T08:09:06.318Z,54.77
2023-05-03T08:11:36.140Z,55.03
2023-05-03T08:14:08.480Z,54.85
2023-05-03T08:16:38.282Z,54.41
2023-05-03T08:19:08.215Z,55.15
2023-05-03T08:21:43.299Z,54.81
2023-05-03T08:24:16.054Z,54.02
2023-05-03T08:26:46.764Z,53.07
2023-05-03T08:29:19.471Z,53.57
2023-05-03T08:31:49.398Z,54.35
2023-05-03T08:34:19.300Z,54.93
2023-05-03T08:36:49.039Z,54.80
2023-05-03T08:39:19.229Z,54.19
2023-05-03T08:41:50.313Z,53.83
2023-05-03T08:44:24.476Z,54.80
2023-05-03T08:46:54.603Z,55.54
2023-05-03T08:49:24.377Z,54.91
2023-05-03T08:51:54.792Z,54.10
2023-05-03T08:54:24.749Z,54.17
2023-05-03T08:56:54.679Z,54.50
2023-05-03T08:59:28.799Z,53.41
2023-05-03T09:01:58.616Z,52.38
2023-05-03T09:04:36.577Z,52.11
2023-05-03T09:07:13.130Z,52.10
2023-05-03T09:09:45.602Z,52.22
2023-05-03T09:12:36.942Z,52.16
2023-05-03T09:15:10.401Z,52.04
2023-05-03T09:17:40.195Z,52.28
2023-05-03T09:20:11.934Z,52.26
2023-05-03T09:22:54.273Z,53.77
2023-05-03T09:25:24.081Z,52.77
2023-05-03T09:28:04.048Z,52.78
2023-05-03T09:30:37.020Z,53.66
2023-05-03T09:33:08.220Z,52.67
2023-05-03T09:35:38.125Z,52.73
2023-05-03T09:38:07.967Z,51.55
2023-05-03T09:40:48.531Z,52.17
2023-05-03T09:43:19.464Z,51.55
2023-05-03T09:45:52.299Z,51.31
2023-05-03T09:48:24.486Z,50.52
2023-05-03T09:50:54.622Z,51.44
2023-05-03T09:53:25.435Z,52.28
2023-05-03T09:55:56.471Z,51.57
2023-05-03T09:58:29.002Z,52.31
2023-05-03T10:01:01.614Z,50.78
2023-05-03T10:03:37.435Z,51.13
2023-05-03T10:06:25.729Z,51.43
2023-05-03T10:09:00.359Z,52.54
2023-05-03T10:11:30.944Z,50.96
2023-05-03T10:14:01.383Z,51.54
2023-05-03T10:16:36.768Z,51.26
2023-05-03T10:19:14.150Z,50.60
2023-05-03T10:21:58.907Z,50.26
2023-05-03T10:24:28.704Z,50.29
2023-05-03T10:26:59.479Z,50.59
2023-05-03T10:29:49.454Z,49.43
2023-05-03T10:32:40.894Z,50.30
2023-05-03T10:35:12.755Z,50.89
2023-05-03T10:37:45.585Z,51.76
2023-05-03T10:40:17.765Z,52.69
2023-05-03T10:42:48.766Z,52.28
2023-05-03T10:45:25.367Z,50.74
2023-05-03T10:48:24.716Z,50.83
2023-05-03T10:50:55.231Z,51.05
2023-05-03T10:53:41.293Z,51.29
2023-05-03T10:56:12.924Z,50.26
2023-05-03T10:58:46.494Z,49.94
2023-05-03T11:01:18.305Z,50.30
2023-05-03T11:03:55.297Z,49.31
2023-05-03T11:06:34.585Z,50.29
2023-05-03T11:09:06.954Z,49.67
2023-05-03T11:11:39.899Z,49.29
2023-05-03T11:14:10.333Z,49.99
2023-05-03T11:16:48.038Z,49.63
2023-05-03T11:19:20.855Z,49.95
2023-05-03T11:21:50.665Z,50.62
2023-05-03T11:24:21.466Z,50.63
2023-05-03T11:26:54.194Z,49.91
2023-05-03T11:29:24.856Z,49.77
2023-05-03T11:31:56.051Z,49.31
2023-05-03T11:34:29.600Z,49.78
2023-05-03T11:37:02.000Z,49.47
2023-05-03T11:39:35.573Z,50.49
2023-05-03T11:42:08.919Z,50.65
2023-05-03T11:44:39.708Z,51.23
2023-05-03T11:47:10.843Z,49.62
2023-05-03T11:49:54.261Z,49.09
2023-05-03T11:52:26.067Z,48.86
2023-05-03T11:54:57.856Z,49.63
2023-05-03T11:57:29.009Z,50.10
2023-05-03T12:00:13.531Z,47.70
2023-05-03T12:02:44.838Z,48.80
2023-05-03T12:05:19.381Z,49.24
2023-05-03T12:07:54.010Z,49.18
2023-05-03T12:10:27.127Z,48.93
2023-05-03T12:13:00.626Z,49.21
2023-05-03T12:15:33.792Z,48.94
2023-05-03T12:18:06.010Z,48.18
2023-05-03T12:23:15.275Z,47.44
2023-05-03T12:25:49.187Z,47.31
2023-05-03T12:28:21.265Z,48.18
2023-05-03T12:30:53.501Z,48.46
2023-05-03T12:33:23.857Z,47.78
2023-05-03T12:35:59.117Z,47.07
2023-05-03T12:38:30.858Z,46.08
2023-05-03T12:41:01.104Z,46.44
2023-05-03T12:43:31.045Z,46.67
2023-05-03T12:46:30.441Z,46.51
2023-05-03T12:48:54.210Z,46.43
2023-05-03T12:51:31.321Z,46.50
2023-05-03T12:54:03.975Z,47.37
2023-05-03T12:56:36.034Z,47.61
2023-05-03T13:06:57.608Z,46.75
2023-05-03T13:09:38.832Z,46.65
2023-05-03T13:12:20.662Z,45.67
2023-05-03T13:14:50.970Z,47.33
2023-05-03T13:17:23.194Z,47.05
2023-05-03T13:19:54.092Z,46.99
2023-05-03T13:22:27.155Z,47.04
2023-05-03T13:24:56.992Z,48.43
2023-05-03T13:27:26.985Z,48.25
2023-05-03T13:29:56.749Z,47.69
2023-05-03T13:32:26.539Z,47.25
2023-05-03T13:34:56.359Z,47.98
2023-05-03T13:37:28.968Z,47.15
2023-05-03T13:39:58.775Z,47.84
2023-05-03T13:42:28.723Z,47.66
2023-05-03T13:44:58.853Z,47.18
2023-05-03T13:47:33.176Z,45.85
2023-05-03T13:50:18.988Z,46.04
2023-05-03T13:52:51.385Z,45.56
2023-05-03T13:55:22.111Z,45.65
2023-05-03T13:57:51.945Z,45.08
2023-05-03T14:00:23.237Z,45.51
2023-05-03T14:02:53.787Z,46.22
2023-05-03T14:05:23.560Z,44.40
2023-05-03T14:07:55.975Z,45.16
2023-05-03T14:10:25.822Z,44.19
2023-05-03T14:12:58.076Z,44.94
2023-05-03T14:15:28.023Z,45.02
2023-05-03T14:18:01.297Z,44.14
2023-05-03T14:20:33.560Z,43.94
2023-05-03T14:23:06.601Z,43.88
2023-05-03T14:25:36.564Z,43.71
2023-05-03T14:28:06.757Z,45.14
2023-05-03T14:30:36.606Z,44.35
2023-05-03T14:33:06.687Z,44.71
2023-05-03T14:35:36.972Z,43.79
2023-05-03T14:38:09.398Z,44.25
2023-05-03T14:40:39.201Z,44.66
2023-05-03T14:43:09.419Z,45.93
2023-05-03T14:45:39.265Z,45.34
2023-05-03T14:48:09.671Z,44.72
2023-05-03T14:50:39.819Z,43.28
2023-05-03T14:53:12.214Z,43.03
2023-05-03T14:55:42.179Z,42.68
2023-05-03T14:58:13.139Z,42.63
2023-05-03T15:00:43.623Z,43.27
2023-05-03T15:03:14.394Z,43.68
2023-05-03T15:05:48.546Z,44.35
2023-05-03T15:08:22.813Z,44.41
2023-05-03T15:10:52.676Z,44.45
2023-05-03T15:13:22.741Z,44.89
2023-05-03T15:15:52.661Z,45.33
2023-05-03T15:18:23.453Z,41.97
2023-05-03T15:20:53.381Z,41.47
2023-05-03T15:23:25.904Z,40.91
2023-05-03T15:25:55.643Z,40.15
2023-05-03T15:28:25.383Z,40.59
2023-05-03T15:30:55.181Z,40.31
2023-05-03T15:33:24.987Z,40.48
2023-05-03T15:35:55.567Z,42.50
2023-05-03T15:38:28.214Z,42.73
2023-05-03T15:40:57.974Z,43.32
2023-05-03T15:43:27.707Z,43.88
2023-05-03T15:45:57.926Z,44.00
2023-05-03T15:48:27.787Z,44.02
2023-05-03T15:50:57.770Z,43.88
2023-05-03T15:53:30.186Z,43.80
2023-05-03T15:56:00.265Z,43.91
2023-05-03T15:58:30.671Z,44.54
2023-05-03T16:01:00.586Z,45.04
2023-05-03T16:03:30.332Z,44.46
2023-05-03T16:06:00.300Z,45.39
2023-05-03T16:08:32.794Z,45.99
2023-05-03T16:11:02.603Z,45.37
2023-05-03T16:13:32.624Z,45.10
2023-05-03T16:16:03.346Z,44.87
2023-05-03T16:18:33.170Z,45.43
2023-05-03T16:21:03.586Z,45.11
2023-05-03T16:23:35.972Z,44.77
2023-05-03T16:26:14.481Z,44.80
2023-05-03T16:28:44.244Z,45.17
2023-05-03T16:31:15.686Z,45.90
2023-05-03T16:33:45.917Z,46.35
2023-05-03T16:36:15.709Z,46.29
2023-05-03T16:38:48.105Z,46.17
2023-05-03T16:41:17.972Z,46.45
2023-05-03T16:43:47.759Z,46.64
2023-05-03T16:46:17.683Z,46.19
2023-05-03T16:48:47.461Z,47.01
2023-05-03T16:51:17.680Z,46.91
2023-05-03T16:53:50.598Z,47.37
2023-05-03T16:56:20.453Z,47.65
2023-05-03T16:58:50.235Z,48.19
2023-05-03T17:01:20.276Z,48.59
2023-05-03T17:03:50.170Z,47.15
2023-05-03T17:06:20.332Z,46.76
2023-05-03T17:08:52.682Z,46.48
2023-05-03T17:11:22.530Z,46.04
2023-05-03T17:13:52.427Z,46.24
2023-05-03T17:16:22.835Z,45.93
2023-05-03T17:18:52.987Z,47.34
2023-05-03T17:21:24.381Z,47.63
2023-05-03T17:23:56.749Z,47.75
2023-05-03T17:26:26.674Z,47.10
2023-05-03T17:28:56.446Z,46.22
2023-05-03T17:31:26.443Z,45.65
2023-05-03T17:33:56.232Z,46.04
2023-05-03T17:36:26.006Z,46.50
2023-05-03T17:38:58.432Z,46.96
2023-05-03T17:41:28.208Z,46.41
2023-05-03T17:43:58.073Z,46.63
2023-05-03T17:46:28.287Z,46.78
2023-05-03T17:48:58.662Z,47.38
2023-05-03T17:51:28.431Z,47.09
2023-05-03T17:54:00.791Z,47.53
2023-05-03T17:56:30.539Z,48.15
2023-05-03T17:59:00.759Z,48.43
2023-05-03T18:01:30.575Z,48.39
2023-05-03T18:04:00.498Z,48.44
2023-05-03T18:06:30.332Z,48.35
2023-05-03T18:09:02.689Z,48.69
2023-05-03T18:11:32.510Z,48.93
2023-05-03T18:14:02.697Z,49.00
2023-05-03T18:16:32.571Z,49.20
2023-05-03T18:19:02.477Z,49.27
2023-05-03T18:21:32.903Z,49.31
2023-05-03T18:24:05.805Z,49.23
2023-05-03T18:26:35.826Z,49.69
2023-05-03T18:29:05.625Z,50.10
2023-05-03T18:31:35.419Z,49.70
2023-05-03T18:34:05.228Z,50.29
2023-05-03T18:36:35.038Z,50.65
2023-05-03T18:39:08.935Z,50.78
2023-05-03T18:41:38.938Z,50.85
2023-05-03T18:44:08.943Z,50.79
2023-05-03T18:46:39.138Z,50.73
2023-05-03T18:49:10.073Z,50.86
2023-05-03T18:51:39.969Z,51.07
2023-05-03T18:54:12.421Z,51.26
2023-05-03T18:56:42.272Z,51.31
2023-05-03T18:59:12.217Z,51.58
2023-05-03T19:01:42.078Z,51.83
2023-05-03T19:04:13.959Z,52.26
2023-05-03T19:06:43.747Z,52.78
2023-05-03T19:09:16.502Z,53.27
2023-05-03T19:11:47.398Z,52.71
2023-05-03T19:14:17.219Z,53.21
2023-05-03T19:16:47.084Z,52.83
2023-05-03T19:19:16.879Z,52.38
2023-05-03T19:21:46.806Z,52.66
2023-05-03T19:24:19.160Z,52.42
2023-05-03T19:26:48.922Z,52.59
2023-05-03T19:29:18.709Z,52.94
2023-05-03T19:31:48.903Z,53.22
2023-05-03T19:34:18.795Z,53.18
2023-05-03T19:36:48.785Z,53.56
2023-05-03T19:39:21.280Z,53.78
2023-05-03T19:41:54.237Z,54.41
2023-05-03T19:44:23.972Z,54.81
2023-05-03T19:46:55.595Z,55.35
2023-05-03T19:49:25.905Z,56.27
2023-05-03T19:51:56.224Z,57.06
2023-05-03T19:54:28.589Z,58.67
2023-05-03T19:56:58.330Z,59.74
2023-05-03T19:59:29.468Z,61.02
2023-05-03T20:01:59.352Z,60.86
2023-05-03T20:04:29.261Z,61.63
2023-05-03T20:06:59.741Z,62.32
2023-05-03T20:09:32.136Z,62.69
2023-05-03T20:12:02.476Z,62.92
2023-05-03T20:14:32.548Z,64.23
2023-05-03T20:17:02.297Z,64.67
2023-05-03T20:19:32.248Z,66.05
2023-05-03T20:22:02.044Z,67.13
2023-05-03T20:24:34.406Z,67.42
2023-05-03T20:27:04.162Z,66.60
2023-05-03T20:29:34.447Z,68.01
2023-05-03T20:32:04.242Z,67.52
2023-05-03T20:34:34.309Z,67.73
2023-05-03T20:37:04.118Z,67.70
2023-05-03T20:39:36.674Z,66.41
2023-05-03T20:42:06.610Z,65.46
2023-05-03T20:44:36.408Z,65.69
2023-05-03T20:47:06.209Z,65.34
2023-05-03T20:49:37.200Z,64.53
2023-05-03T20:52:07.782Z,64.59
2023-05-03T20:54:44.458Z,64.50
2023-05-03T20:57:16.928Z,64.41
2023-05-03T20:59:47.120Z,64.51
2023-05-03T21:02:17.018Z,64.49
2023-05-03T21:04:46.865Z,64.47
2023-05-03T21:07:16.699Z,65.69
2023-05-03T21:09:49.074Z,66.21
2023-05-03T21:12:18.893Z,67.09
2023-05-03T21:14:48.751Z,67.19
2023-05-03T21:17:18.861Z,67.71
2023-05-03T21:19:48.769Z,66.74
2023-05-03T21:22:18.652Z,67.51
2023-05-03T21:24:51.278Z,68.07
2023-05-03T21:27:22.221Z,67.80
2023-05-03T21:29:51.999Z,67.06
2023-05-03T21:32:21.747Z,66.75
2023-05-03T21:34:52.429Z,66.42
2023-05-03T21:37:22.249Z,66.02
2023-05-03T21:40:05.508Z,65.79
2023-05-03T21:42:35.381Z,66.14
2023-05-03T21:45:05.343Z,66.59
2023-05-03T21:47:35.209Z,66.55
2023-05-03T21:50:06.153Z,67.10
2023-05-03T21:52:36.469Z,68.61
2023-05-03T21:55:10.018Z,68.97
2023-05-03T21:57:39.788Z,69.62
2023-05-03T22:00:14.846Z,69.63
2023-05-03T22:02:44.715Z,69.98
2023-05-03T22:05:14.792Z,70.37
2023-05-03T22:07:44.673Z,70.73
2023-05-03T22:10:17.404Z,70.92
2023-05-03T22:12:47.308Z,71.19
2023-05-03T22:15:17.105Z,71.81
2023-05-03T22:17:46.877Z,71.75
2023-05-03T22:20:16.689Z,72.05
2023-05-03T22:22:46.437Z,72.85
2023-05-03T22:25:28.965Z,72.12
2023-05-03T22:27:59.853Z,72.68
2023-05-03T22:30:29.672Z,72.56
2023-05-03T22:32:59.519Z,73.60
2023-05-03T22:35:29.359Z,73.65
2023-05-03T22:37:59.944Z,73.35
2023-05-03T22:40:32.594Z,74.45
2023-05-03T22:43:02.412Z,74.23
2023-05-03T22:45:32.195Z,74.43
2023-05-03T22:48:02.006Z,74.14
2023-05-03T22:50:31.869Z,73.99
2023-05-03T22:53:01.623Z,74.58
2023-05-03T22:55:34.015Z,74.91
2023-05-03T22:58:03.840Z,74.55
2023-05-03T23:00:33.662Z,74.02
2023-05-03T23:03:03.516Z,73.89
2023-05-03T23:05:33.379Z,73.13
2023-05-03T23:08:03.105Z,74.73
2023-05-03T23:10:35.544Z,75.35
2023-05-03T23:13:05.475Z,75.75
2023-05-03T23:15:35.611Z,76.00
2023-05-03T23:18:05.623Z,77.04
2023-05-03T23:20:35.572Z,77.06
2023-05-03T23:23:05.347Z,77.48
2023-05-03T23:25:37.779Z,77.57
2023-05-03T23:28:08.023Z,77.06
2023-05-03T23:30:38.318Z,77.22
2023-05-03T23:33:08.615Z,77.94
2023-05-03T23:35:38.978Z,76.19
2023-05-03T23:38:08.972Z,76.93
2023-05-03T23:40:41.782Z,77.54
2023-05-03T23:43:11.591Z,77.32
2023-05-03T23:45:41.433Z,76.48
2023-05-03T23:48:11.215Z,77.38
2023-05-03T23:50:41.025Z,76.76
2023-05-03T23:53:11.133Z,75.87
2023-05-03T23:55:43.502Z,76.54
2023-05-03T23:58:13.212Z,77.25
